עמוד ראשי
METAR-TAF:

METAR-TAF

שדות תעופה :

Wanaham

Lifou, קלדוניה החדשה

קו רוחב: 20-46S, קו אורך: 167-14E, גובה: 28מטר

METAR: חסר

זמן: 23:04 (12:04 UTC)

תחזית

הדו"ח נערך לפני 1 שעות ו 4דקות, בשעה 11:00 UTC
תחזית בתוקף מ 15 ב 12 UTC עד 16 ב 12 UTC
רוח 2קשר עם כיוונים משתנים
ראות 10 קילומטר או יותר
עננים בינוניים בגובה 4000רגל
זמנית מ -
15 ב 12 UTC עד 15 ב 20 UTC
ראות: 2500מטר
אד,

TAF: NWWL 151100Z 1512/1612 VRB02KT 9999 BKN040 TEMPO 1512/1520 2500 BR

תצפיות ותחזיות מזג אוויר לגבי יותר מ- 4,000 שדות תעופה ברחבי העולם. דוחות METAR ו- TAF.

התחנות הזמינות מסומנות בנקודות צהובות ואדומות על גבי המפה.

העבר את העכבר לנקודה הצבעונית על מנת לראות את שם התחנה.

לאחר מכן, לחץ כדי לראות את תוכן ואת תחזיות מזג האוויר.

כדי לשנות את המפה: לחץ על הכפתורים הירוקים עם הפלוס השחור כדי להתקרב; על הכפתור הירוק עם המקף כדי להתרחק; או בחיצים הירוקים למפות סמוכות.


METAR-TAF: